sensor_id;sensor_type;location;lat;lon;timestamp;pressure;altitude;pressure_sealevel;temperature;humidity
63321;BME280;49449;48.800;9.534;2023-07-28T00:02:10;97844.41;;;17.65;49.78
63321;BME280;49449;48.800;9.534;2023-07-28T00:04:38;97840.16;;;17.64;49.77
63321;BME280;49449;48.800;9.534;2023-07-28T00:07:05;97838.28;;;17.64;49.59
63321;BME280;49449;48.800;9.534;2023-07-28T00:09:35;97843.63;;;17.64;49.47
63321;BME280;49449;48.800;9.534;2023-07-28T00:12:03;97845.19;;;17.65;49.63
63321;BME280;49449;48.800;9.534;2023-07-28T00:14:31;97837.19;;;17.65;49.46
63321;BME280;49449;48.800;9.534;2023-07-28T00:16:59;97847.16;;;17.59;49.95
63321;BME280;49449;48.800;9.534;2023-07-28T00:19:26;97851.50;;;17.55;49.68
63321;BME280;49449;48.800;9.534;2023-07-28T00:21:54;97846.66;;;17.57;49.45
63321;BME280;49449;48.800;9.534;2023-07-28T00:24:22;97842.91;;;17.58;49.77
63321;BME280;49449;48.800;9.534;2023-07-28T00:26:51;97845.28;;;17.41;50.33
63321;BME280;49449;48.800;9.534;2023-07-28T00:29:19;97849.22;;;17.44;50.24
63321;BME280;49449;48.800;9.534;2023-07-28T00:31:47;97843.09;;;17.43;50.09
63321;BME280;49449;48.800;9.534;2023-07-28T00:34:15;97839.13;;;17.40;49.95
63321;BME280;49449;48.800;9.534;2023-07-28T00:36:43;97839.44;;;17.39;49.95
63321;BME280;49449;48.800;9.534;2023-07-28T00:39:10;97838.13;;;17.36;49.97
63321;BME280;49449;48.800;9.534;2023-07-28T00:41:38;97839.72;;;17.37;49.80
63321;BME280;49449;48.800;9.534;2023-07-28T00:44:07;97832.28;;;17.34;49.80
63321;BME280;49449;48.800;9.534;2023-07-28T00:46:35;97828.91;;;17.29;49.74
63321;BME280;49449;48.800;9.534;2023-07-28T00:49:03;97830.75;;;17.28;49.95
63321;BME280;49449;48.800;9.534;2023-07-28T00:51:31;97818.06;;;17.20;49.86
63321;BME280;49449;48.800;9.534;2023-07-28T00:53:59;97813.31;;;17.17;49.70
63321;BME280;49449;48.800;9.534;2023-07-28T00:56:28;97819.22;;;17.14;49.48
63321;BME280;49449;48.800;9.534;2023-07-28T00:58:56;97832.56;;;17.14;49.85
63321;BME280;49449;48.800;9.534;2023-07-28T01:01:25;97829.59;;;17.15;49.58
63321;BME280;49449;48.800;9.534;2023-07-28T01:03:54;97823.19;;;17.16;49.40
63321;BME280;49449;48.800;9.534;2023-07-28T01:06:27;97828.81;;;17.15;49.62
63321;BME280;49449;48.800;9.534;2023-07-28T01:09:02;97834.66;;;17.17;49.41
63321;BME280;49449;48.800;9.534;2023-07-28T01:11:30;97829.31;;;17.17;49.36
63321;BME280;49449;48.800;9.534;2023-07-28T01:13:58;97831.00;;;17.13;49.25
63321;BME280;49449;48.800;9.534;2023-07-28T01:16:27;97840.34;;;17.10;49.49
63321;BME280;49449;48.800;9.534;2023-07-28T01:18:55;97829.69;;;17.10;49.35
63321;BME280;49449;48.800;9.534;2023-07-28T01:21:28;97824.63;;;17.09;49.56
63321;BME280;49449;48.800;9.534;2023-07-28T01:24:04;97821.16;;;17.08;49.64
63321;BME280;49449;48.800;9.534;2023-07-28T01:26:36;97827.56;;;17.07;49.72
63321;BME280;49449;48.800;9.534;2023-07-28T01:29:04;97826.28;;;17.04;49.75
63321;BME280;49449;48.800;9.534;2023-07-28T01:31:32;97822.13;;;16.98;49.65
63321;BME280;49449;48.800;9.534;2023-07-28T01:34:00;97820.50;;;16.97;49.88
63321;BME280;49449;48.800;9.534;2023-07-28T01:36:28;97819.44;;;16.98;49.67
63321;BME280;49449;48.800;9.534;2023-07-28T01:38:56;97824.56;;;16.95;49.81
63321;BME280;49449;48.800;9.534;2023-07-28T01:41:25;97814.66;;;16.95;49.88
63321;BME280;49449;48.800;9.534;2023-07-28T01:43:54;97821.28;;;16.98;49.64
63321;BME280;49449;48.800;9.534;2023-07-28T01:46:22;97817.63;;;16.94;49.60
63321;BME280;49449;48.800;9.534;2023-07-28T01:48:50;97812.56;;;16.92;49.85
63321;BME280;49449;48.800;9.534;2023-07-28T01:51:18;97819.78;;;16.92;49.77
63321;BME280;49449;48.800;9.534;2023-07-28T01:53:46;97807.81;;;16.89;49.78
63321;BME280;49449;48.800;9.534;2023-07-28T01:56:13;97807.13;;;16.78;50.20
63321;BME280;49449;48.800;9.534;2023-07-28T01:58:42;97802.88;;;16.77;50.02
63321;BME280;49449;48.800;9.534;2023-07-28T02:01:12;97794.56;;;16.79;49.93
63321;BME280;49449;48.800;9.534;2023-07-28T02:03:40;97791.34;;;16.82;49.57
63321;BME280;49449;48.800;9.534;2023-07-28T02:06:07;97803.13;;;16.81;49.54
63321;BME280;49449;48.800;9.534;2023-07-28T02:08:35;97799.34;;;16.82;49.35
63321;BME280;49449;48.800;9.534;2023-07-28T02:11:03;97793.00;;;16.78;49.44
63321;BME280;49449;48.800;9.534;2023-07-28T02:13:31;97791.66;;;16.75;49.41
63321;BME280;49449;48.800;9.534;2023-07-28T02:15:57;97800.00;;;16.74;49.49
63321;BME280;49449;48.800;9.534;2023-07-28T02:18:26;97793.84;;;16.73;49.54
63321;BME280;49449;48.800;9.534;2023-07-28T02:20:54;97803.50;;;16.69;49.71
63321;BME280;49449;48.800;9.534;2023-07-28T02:23:22;97807.22;;;16.68;49.48
63321;BME280;49449;48.800;9.534;2023-07-28T02:25:50;97795.28;;;16.65;49.54
63321;BME280;49449;48.800;9.534;2023-07-28T02:28:18;97787.56;;;16.64;49.32
63321;BME280;49449;48.800;9.534;2023-07-28T02:30:45;97794.56;;;16.60;49.51
63321;BME280;49449;48.800;9.534;2023-07-28T02:33:13;97786.09;;;16.53;49.50
63321;BME280;49449;48.800;9.534;2023-07-28T02:35:42;97801.81;;;16.54;49.48
63321;BME280;49449;48.800;9.534;2023-07-28T02:38:10;97798.63;;;16.52;49.49
63321;BME280;49449;48.800;9.534;2023-07-28T02:40:38;97793.28;;;16.52;49.31
63321;BME280;49449;48.800;9.534;2023-07-28T02:43:05;97799.16;;;16.54;49.19
63321;BME280;49449;48.800;9.534;2023-07-28T02:45:33;97802.88;;;16.53;49.29
63321;BME280;49449;48.800;9.534;2023-07-28T02:48:01;97798.63;;;16.52;49.38
63321;BME280;49449;48.800;9.534;2023-07-28T02:50:29;97802.44;;;16.46;49.43
63321;BME280;49449;48.800;9.534;2023-07-28T02:52:58;97816.00;;;16.50;49.35
63321;BME280;49449;48.800;9.534;2023-07-28T02:55:26;97813.03;;;16.51;49.20
63321;BME280;49449;48.800;9.534;2023-07-28T02:57:54;97827.16;;;16.52;49.22
63321;BME280;49449;48.800;9.534;2023-07-28T03:00:22;97826.88;;;16.53;49.21
63321;BME280;49449;48.800;9.534;2023-07-28T03:02:49;97825.56;;;16.51;49.04
63321;BME280;49449;48.800;9.534;2023-07-28T03:05:17;97834.66;;;16.50;48.90
63321;BME280;49449;48.800;9.534;2023-07-28T03:07:47;97841.34;;;16.47;49.22
63321;BME280;49449;48.800;9.534;2023-07-28T03:10:16;97847.47;;;16.47;49.03
63321;BME280;49449;48.800;9.534;2023-07-28T03:12:44;97848.53;;;16.46;49.18
63321;BME280;49449;48.800;9.534;2023-07-28T03:15:12;97858.94;;;16.48;48.96
63321;BME280;49449;48.800;9.534;2023-07-28T03:17:40;97861.03;;;16.51;49.10
63321;BME280;49449;48.800;9.534;2023-07-28T03:20:08;97862.38;;;16.48;49.22
63321;BME280;49449;48.800;9.534;2023-07-28T03:22:36;97864.25;;;16.48;49.02
63321;BME280;49449;48.800;9.534;2023-07-28T03:25:04;97878.38;;;16.48;48.83
63321;BME280;49449;48.800;9.534;2023-07-28T03:27:33;97874.94;;;16.48;49.04
63321;BME280;49449;48.800;9.534;2023-07-28T03:30:01;97876.81;;;16.47;48.85
63321;BME280;49449;48.800;9.534;2023-07-28T03:32:33;97881.03;;;16.48;49.01
63321;BME280;49449;48.800;9.534;2023-07-28T03:35:00;97884.81;;;16.47;49.13
63321;BME280;49449;48.800;9.534;2023-07-28T03:37:31;97882.19;;;16.42;49.13
63321;BME280;49449;48.800;9.534;2023-07-28T03:39:58;97878.00;;;16.31;49.28
63321;BME280;49449;48.800;9.534;2023-07-28T03:42:26;97883.09;;;16.27;49.87
63321;BME280;49449;48.800;9.534;2023-07-28T03:44:55;97894.00;;;16.31;49.67
63321;BME280;49449;48.800;9.534;2023-07-28T03:47:23;97893.22;;;16.31;49.47
63321;BME280;49449;48.800;9.534;2023-07-28T03:49:51;97900.38;;;16.35;49.39
63321;BME280;49449;48.800;9.534;2023-07-28T03:52:19;97896.63;;;16.36;49.31
63321;BME280;49449;48.800;9.534;2023-07-28T03:54:46;97908.09;;;16.37;49.34
63321;BME280;49449;48.800;9.534;2023-07-28T03:57:14;97909.69;;;16.38;49.30
63321;BME280;49449;48.800;9.534;2023-07-28T03:59:42;97911.00;;;16.40;49.01
63321;BME280;49449;48.800;9.534;2023-07-28T04:02:11;97916.34;;;16.40;49.17
63321;BME280;49449;48.800;9.534;2023-07-28T04:04:39;97920.56;;;16.41;49.24
63321;BME280;49449;48.800;9.534;2023-07-28T04:07:07;97920.03;;;16.44;49.24
63321;BME280;49449;48.800;9.534;2023-07-28T04:09:34;97913.44;;;16.37;49.25
63321;BME280;49449;48.800;9.534;2023-07-28T04:12:03;97920.19;;;16.24;49.75
63321;BME280;49449;48.800;9.534;2023-07-28T04:14:31;97921.09;;;16.14;50.46
63321;BME280;49449;48.800;9.534;2023-07-28T04:16:58;97912.91;;;16.05;50.33
63321;BME280;49449;48.800;9.534;2023-07-28T04:19:27;97914.69;;;16.10;50.41
63321;BME280;49449;48.800;9.534;2023-07-28T04:21:56;97914.69;;;16.10;50.30
63321;BME280;49449;48.800;9.534;2023-07-28T04:24:24;97914.44;;;16.12;50.21
63321;BME280;49449;48.800;9.534;2023-07-28T04:26:52;97912.81;;;16.16;50.36
63321;BME280;49449;48.800;9.534;2023-07-28T04:29:20;97906.13;;;16.18;50.20
63321;BME280;49449;48.800;9.534;2023-07-28T04:31:47;97900.25;;;16.21;50.17
63321;BME280;49449;48.800;9.534;2023-07-28T04:34:15;97902.63;;;16.23;50.05
63321;BME280;49449;48.800;9.534;2023-07-28T04:36:44;97896.75;;;16.26;50.05
63321;BME280;49449;48.800;9.534;2023-07-28T04:39:12;97897.75;;;16.30;49.89
63321;BME280;49449;48.800;9.534;2023-07-28T04:41:40;97896.91;;;16.35;49.92
63321;BME280;49449;48.800;9.534;2023-07-28T04:44:08;97897.13;;;16.38;49.96
63321;BME280;49449;48.800;9.534;2023-07-28T04:46:35;97902.41;;;16.43;49.73
63321;BME280;49449;48.800;9.534;2023-07-28T04:49:03;97898.13;;;16.47;49.60
63321;BME280;49449;48.800;9.534;2023-07-28T04:51:31;97900.53;;;16.49;49.63
63321;BME280;49449;48.800;9.534;2023-07-28T04:54:00;97894.88;;;16.51;49.68
63321;BME280;49449;48.800;9.534;2023-07-28T04:56:28;97897.81;;;16.54;49.62
63321;BME280;49449;48.800;9.534;2023-07-28T04:58:56;97900.97;;;16.56;49.58
63321;BME280;49449;48.800;9.534;2023-07-28T05:01:25;97896.94;;;16.59;49.27
63321;BME280;49449;48.800;9.534;2023-07-28T05:03:53;97903.59;;;16.61;49.36
63321;BME280;49449;48.800;9.534;2023-07-28T05:06:20;97905.16;;;16.62;49.36
63321;BME280;49449;48.800;9.534;2023-07-28T05:08:48;97904.66;;;16.60;49.38
63321;BME280;49449;48.800;9.534;2023-07-28T05:11:17;97905.72;;;16.59;49.41
63321;BME280;49449;48.800;9.534;2023-07-28T05:13:45;97904.09;;;16.63;49.31
63321;BME280;49449;48.800;9.534;2023-07-28T05:16:13;97905.41;;;16.66;49.20
63321;BME280;49449;48.800;9.534;2023-07-28T05:18:41;97902.72;;;16.66;49.13
63321;BME280;49449;48.800;9.534;2023-07-28T05:21:09;97901.38;;;16.69;49.27
63321;BME280;49449;48.800;9.534;2023-07-28T05:23:37;97902.69;;;16.71;49.46
63321;BME280;49449;48.800;9.534;2023-07-28T05:26:04;97910.41;;;16.73;49.55
63321;BME280;49449;48.800;9.534;2023-07-28T05:28:34;97907.47;;;16.74;49.64
63321;BME280;49449;48.800;9.534;2023-07-28T05:31:05;97914.38;;;16.75;49.82
63321;BME280;49449;48.800;9.534;2023-07-28T05:33:33;97910.41;;;16.73;49.84
63321;BME280;49449;48.800;9.534;2023-07-28T05:36:02;97922.91;;;16.77;49.62
63321;BME280;49449;48.800;9.534;2023-07-28T05:38:31;97921.03;;;16.78;49.43
63321;BME280;49449;48.800;9.534;2023-07-28T05:40:59;97913.00;;;16.78;49.86
63321;BME280;49449;48.800;9.534;2023-07-28T05:43:27;97912.22;;;16.77;49.90
63321;BME280;49449;48.800;9.534;2023-07-28T05:45:57;97916.72;;;16.82;49.69
63321;BME280;49449;48.800;9.534;2023-07-28T05:48:26;97927.13;;;16.83;49.45
63321;BME280;49449;48.800;9.534;2023-07-28T05:50:53;97930.88;;;16.82;49.79
63321;BME280;49449;48.800;9.534;2023-07-28T05:53:21;97933.25;;;16.84;49.83
63321;BME280;49449;48.800;9.534;2023-07-28T05:55:49;97938.56;;;16.84;49.92
63321;BME280;49449;48.800;9.534;2023-07-28T05:58:17;97933.78;;;16.86;50.13
63321;BME280;49449;48.800;9.534;2023-07-28T06:00:45;97938.28;;;16.85;50.19
63321;BME280;49449;48.800;9.534;2023-07-28T06:03:14;97942.00;;;16.90;50.20
63321;BME280;49449;48.800;9.534;2023-07-28T06:05:42;97945.19;;;16.92;50.24
63321;BME280;49449;48.800;9.534;2023-07-28T06:08:10;97945.41;;;16.95;50.09
63321;BME280;49449;48.800;9.534;2023-07-28T06:10:37;97956.31;;;16.99;50.20
63321;BME280;49449;48.800;9.534;2023-07-28T06:13:05;97958.69;;;17.00;50.03
63321;BME280;49449;48.800;9.534;2023-07-28T06:15:33;97957.59;;;17.01;50.09
63321;BME280;49449;48.800;9.534;2023-07-28T06:18:01;97951.19;;;17.02;49.61
63321;BME280;49449;48.800;9.534;2023-07-28T06:20:31;97950.63;;;17.06;49.65
63321;BME280;49449;48.800;9.534;2023-07-28T06:22:58;97954.88;;;17.07;49.53
63321;BME280;49449;48.800;9.534;2023-07-28T06:25:29;97950.91;;;17.04;49.96
63321;BME280;49449;48.800;9.534;2023-07-28T06:27:56;97963.66;;;17.07;49.83
63321;BME280;49449;48.800;9.534;2023-07-28T06:30:24;97967.94;;;17.08;49.89
63321;BME280;49449;48.800;9.534;2023-07-28T06:32:52;97962.59;;;17.08;49.99
63321;BME280;49449;48.800;9.534;2023-07-28T06:35:20;97960.72;;;17.09;50.08
63321;BME280;49449;48.800;9.534;2023-07-28T06:37:50;97963.66;;;17.07;50.14
63321;BME280;49449;48.800;9.534;2023-07-28T06:40:18;97973.03;;;17.04;50.17
63321;BME280;49449;48.800;9.534;2023-07-28T06:42:46;97975.94;;;17.08;49.94
63321;BME280;49449;48.800;9.534;2023-07-28T06:45:14;97974.06;;;17.09;50.02
63321;BME280;49449;48.800;9.534;2023-07-28T06:47:42;97980.72;;;17.11;49.86
63321;BME280;49449;48.800;9.534;2023-07-28T06:50:10;97978.28;;;17.15;49.75
63321;BME280;49449;48.800;9.534;2023-07-28T06:52:39;97983.84;;;17.18;49.81
63321;BME280;49449;48.800;9.534;2023-07-28T06:55:08;97988.38;;;17.18;50.22
63321;BME280;49449;48.800;9.534;2023-07-28T06:57:36;97983.84;;;17.18;49.86
63321;BME280;49449;48.800;9.534;2023-07-28T07:00:05;97994.25;;;17.20;49.87
63321;BME280;49449;48.800;9.534;2023-07-28T07:02:36;97999.00;;;17.23;49.79
63321;BME280;49449;48.800;9.534;2023-07-28T07:05:04;98001.38;;;17.25;49.85
63321;BME280;49449;48.800;9.534;2023-07-28T07:07:33;97994.19;;;17.25;50.26
63321;BME280;49449;48.800;9.534;2023-07-28T07:10:01;97999.47;;;17.30;49.88
63321;BME280;49449;48.800;9.534;2023-07-28T07:12:30;98014.38;;;17.31;49.49
63321;BME280;49449;48.800;9.534;2023-07-28T07:14:58;98013.88;;;17.29;49.83
63321;BME280;49449;48.800;9.534;2023-07-28T07:17:25;98003.97;;;17.30;49.54
63321;BME280;49449;48.800;9.534;2023-07-28T07:19:53;97999.47;;;17.30;49.85
63321;BME280;49449;48.800;9.534;2023-07-28T07:22:21;98001.81;;;17.32;49.75
63321;BME280;49449;48.800;9.534;2023-07-28T07:24:49;97995.13;;;17.34;49.68
63321;BME280;49449;48.800;9.534;2023-07-28T07:27:16;97996.69;;;17.35;50.44
63321;BME280;49449;48.800;9.534;2023-07-28T07:29:46;97999.16;;;17.32;50.59
63321;BME280;49449;48.800;9.534;2023-07-28T07:32:14;98002.59;;;17.37;50.20
63321;BME280;49449;48.800;9.534;2023-07-28T07:34:43;98004.38;;;17.42;50.45
63321;BME280;49449;48.800;9.534;2023-07-28T07:37:11;98008.38;;;17.45;50.84
63321;BME280;49449;48.800;9.534;2023-07-28T07:39:38;98012.59;;;17.46;50.46
63321;BME280;49449;48.800;9.534;2023-07-28T07:42:09;98012.84;;;17.49;50.82
63321;BME280;49449;48.800;9.534;2023-07-28T07:44:37;98018.41;;;17.53;50.64
63321;BME280;49449;48.800;9.534;2023-07-28T07:47:13;98014.41;;;17.55;50.99
63321;BME280;49449;48.800;9.534;2023-07-28T07:49:41;98015.13;;;17.61;50.64
63321;BME280;49449;48.800;9.534;2023-07-28T07:52:09;98021.78;;;17.64;50.42
63321;BME280;49449;48.800;9.534;2023-07-28T07:54:37;98026.53;;;17.67;50.21
63321;BME280;49449;48.800;9.534;2023-07-28T07:57:05;98028.88;;;17.73;50.69
63321;BME280;49449;48.800;9.534;2023-07-28T07:59:36;98029.38;;;17.75;50.21
63321;BME280;49449;48.800;9.534;2023-07-28T08:02:04;98026.63;;;17.81;50.40
63321;BME280;49449;48.800;9.534;2023-07-28T08:04:33;98020.44;;;17.85;50.10
63321;BME280;49449;48.800;9.534;2023-07-28T08:07:03;98024.63;;;17.91;50.01
63321;BME280;49449;48.800;9.534;2023-07-28T08:09:31;98022.16;;;17.95;50.41
63321;BME280;49449;48.800;9.534;2023-07-28T08:12:00;98026.66;;;18.00;50.36
63321;BME280;49449;48.800;9.534;2023-07-28T08:14:28;98029.53;;;18.03;50.40
63321;BME280;49449;48.800;9.534;2023-07-28T08:16:56;98027.88;;;18.07;50.49
63321;BME280;49449;48.800;9.534;2023-07-28T08:19:24;98025.19;;;18.07;50.89
63321;BME280;49449;48.800;9.534;2023-07-28T08:21:53;98023.53;;;18.11;50.59
63321;BME280;49449;48.800;9.534;2023-07-28T08:24:21;98030.97;;;18.14;50.26
63321;BME280;49449;48.800;9.534;2023-07-28T08:26:49;98033.28;;;18.21;50.25
63321;BME280;49449;48.800;9.534;2023-07-28T08:29:17;98037.84;;;18.21;50.21
63321;BME280;49449;48.800;9.534;2023-07-28T08:31:44;98044.25;;;18.20;49.91
63321;BME280;49449;48.800;9.534;2023-07-28T08:34:12;98042.69;;;18.19;50.40
63321;BME280;49449;48.800;9.534;2023-07-28T08:36:40;98044.25;;;18.20;50.15
63321;BME280;49449;48.800;9.534;2023-07-28T08:39:09;98056.06;;;18.19;50.00
63321;BME280;49449;48.800;9.534;2023-07-28T08:41:38;98053.88;;;18.21;49.93
63321;BME280;49449;48.800;9.534;2023-07-28T08:44:06;98066.16;;;18.22;49.51
63321;BME280;49449;48.800;9.534;2023-07-28T08:46:34;98063.19;;;18.23;49.59
63321;BME280;49449;48.800;9.534;2023-07-28T08:49:02;98068.00;;;18.26;49.70
63321;BME280;49449;48.800;9.534;2023-07-28T08:51:30;98070.94;;;18.25;49.92
63321;BME280;49449;48.800;9.534;2023-07-28T08:53:58;98066.31;;;18.30;49.82
63321;BME280;49449;48.800;9.534;2023-07-28T08:56:27;98065.19;;;18.37;49.51
63321;BME280;49449;48.800;9.534;2023-07-28T08:58:58;98066.75;;;18.38;49.07
63321;BME280;49449;48.800;9.534;2023-07-28T09:01:26;98065.09;;;18.42;49.61
63321;BME280;49449;48.800;9.534;2023-07-28T09:03:54;98070.38;;;18.47;49.54
63321;BME280;49449;48.800;9.534;2023-07-28T09:06:28;98073.03;;;18.47;49.34
63321;BME280;49449;48.800;9.534;2023-07-28T09:08:57;98078.59;;;18.50;48.61
63321;BME280;49449;48.800;9.534;2023-07-28T09:11:25;98081.28;;;18.50;48.93
63321;BME280;49449;48.800;9.534;2023-07-28T09:13:55;98073.19;;;18.56;48.64
63321;BME280;49449;48.800;9.534;2023-07-28T09:16:23;98079.75;;;18.63;48.88
63321;BME280;49449;48.800;9.534;2023-07-28T09:18:52;98077.97;;;18.72;48.43
63321;BME280;49449;48.800;9.534;2023-07-28T09:21:32;98077.84;;;18.64;48.26
63321;BME280;49449;48.800;9.534;2023-07-28T09:24:00;98077.41;;;18.76;48.19
63321;BME280;49449;48.800;9.534;2023-07-28T09:26:37;98073.13;;;18.74;48.45
63321;BME280;49449;48.800;9.534;2023-07-28T09:29:13;98073.75;;;18.85;48.63
63321;BME280;49449;48.800;9.534;2023-07-28T09:31:41;98077.94;;;18.91;47.99
63321;BME280;49449;48.800;9.534;2023-07-28T09:34:09;98078.47;;;18.94;48.01
63321;BME280;49449;48.800;9.534;2023-07-28T09:36:37;98082.00;;;18.89;48.40
63321;BME280;49449;48.800;9.534;2023-07-28T09:39:06;98074.63;;;19.00;47.82
63321;BME280;49449;48.800;9.534;2023-07-28T09:41:35;98070.88;;;19.15;46.91
63321;BME280;49449;48.800;9.534;2023-07-28T09:44:05;98071.97;;;19.27;47.00
63321;BME280;49449;48.800;9.534;2023-07-28T09:46:34;98076.06;;;19.39;46.74
63321;BME280;49449;48.800;9.534;2023-07-28T09:49:10;98080.22;;;19.45;46.66
63321;BME280;49449;48.800;9.534;2023-07-28T09:51:40;98073.06;;;19.54;46.74
63321;BME280;49449;48.800;9.534;2023-07-28T09:54:12;98065.34;;;19.66;46.00
63321;BME280;49449;48.800;9.534;2023-07-28T09:56:41;98059.97;;;19.80;46.18
63321;BME280;49449;48.800;9.534;2023-07-28T09:59:11;98060.06;;;19.89;47.02
63321;BME280;49449;48.800;9.534;2023-07-28T10:01:41;98067.19;;;20.08;45.80
63321;BME280;49449;48.800;9.534;2023-07-28T10:04:10;98062.19;;;20.15;45.14
63321;BME280;49449;48.800;9.534;2023-07-28T10:06:38;98060.19;;;20.20;46.16
63321;BME280;49449;48.800;9.534;2023-07-28T10:09:06;98070.25;;;20.29;45.28
63321;BME280;49449;48.800;9.534;2023-07-28T10:11:34;98071.22;;;20.33;45.35
63321;BME280;49449;48.800;9.534;2023-07-28T10:14:02;98069.31;;;20.33;45.21
63321;BME280;49449;48.800;9.534;2023-07-28T10:16:31;98074.19;;;20.31;45.56
63321;BME280;49449;48.800;9.534;2023-07-28T10:19:06;98076.16;;;20.26;44.07
63321;BME280;49449;48.800;9.534;2023-07-28T10:21:39;98067.63;;;20.23;44.56
63321;BME280;49449;48.800;9.534;2023-07-28T10:24:07;98069.44;;;20.28;44.89
63321;BME280;49449;48.800;9.534;2023-07-28T10:26:35;98072.09;;;20.28;44.79
63321;BME280;49449;48.800;9.534;2023-07-28T10:29:11;98070.25;;;20.29;45.21
63321;BME280;49449;48.800;9.534;2023-07-28T10:31:49;98069.56;;;20.46;45.11
63321;BME280;49449;48.800;9.534;2023-07-28T10:34:19;98073.66;;;20.66;44.66
63321;BME280;49449;48.800;9.534;2023-07-28T10:36:56;98073.22;;;20.72;44.35
63321;BME280;49449;48.800;9.534;2023-07-28T10:39:25;98071.94;;;20.70;44.51
63321;BME280;49449;48.800;9.534;2023-07-28T10:42:02;98072.50;;;20.80;44.34
63321;BME280;49449;48.800;9.534;2023-07-28T10:44:31;98074.56;;;20.84;43.96
63321;BME280;49449;48.800;9.534;2023-07-28T10:46:59;98064.78;;;20.88;44.10
63321;BME280;49449;48.800;9.534;2023-07-28T10:49:28;98067.91;;;21.04;43.97
63321;BME280;49449;48.800;9.534;2023-07-28T10:51:56;98058.84;;;21.22;43.55
63321;BME280;49449;48.800;9.534;2023-07-28T10:54:24;98068.63;;;21.27;43.70
63321;BME280;49449;48.800;9.534;2023-07-28T10:56:51;98070.75;;;21.39;43.25
63321;BME280;49449;48.800;9.534;2023-07-28T10:59:19;98072.34;;;21.48;42.46
63321;BME280;49449;48.800;9.534;2023-07-28T11:01:47;98077.09;;;21.51;42.78
63321;BME280;49449;48.800;9.534;2023-07-28T11:04:16;98071.06;;;21.37;43.10
63321;BME280;49449;48.800;9.534;2023-07-28T11:06:47;98078.94;;;21.33;42.50
63321;BME280;49449;48.800;9.534;2023-07-28T11:09:17;98071.84;;;21.37;42.62
63321;BME280;49449;48.800;9.534;2023-07-28T11:11:46;98073.75;;;21.37;42.41
63321;BME280;49449;48.800;9.534;2023-07-28T11:14:15;98079.25;;;21.32;42.75
63321;BME280;49449;48.800;9.534;2023-07-28T11:16:43;98071.97;;;21.24;42.64
63321;BME280;49449;48.800;9.534;2023-07-28T11:19:13;98075.41;;;21.15;42.68
63321;BME280;49449;48.800;9.534;2023-07-28T11:21:43;98079.81;;;21.11;42.31
63321;BME280;49449;48.800;9.534;2023-07-28T11:24:18;98080.41;;;21.08;42.33
63321;BME280;49449;48.800;9.534;2023-07-28T11:26:46;98083.59;;;21.10;42.26
63321;BME280;49449;48.800;9.534;2023-07-28T11:29:14;98082.16;;;21.13;42.39
63321;BME280;49449;48.800;9.534;2023-07-28T11:31:43;98076.47;;;21.14;41.95
63321;BME280;49449;48.800;9.534;2023-07-28T11:34:13;98081.25;;;21.17;42.00
63321;BME280;49449;48.800;9.534;2023-07-28T11:36:41;98081.41;;;21.21;42.28
63321;BME280;49449;48.800;9.534;2023-07-28T11:39:09;98074.00;;;21.27;42.13
63321;BME280;49449;48.800;9.534;2023-07-28T11:41:39;98074.00;;;21.27;42.31
63321;BME280;49449;48.800;9.534;2023-07-28T11:44:08;98070.28;;;21.36;42.32
63321;BME280;49449;48.800;9.534;2023-07-28T11:46:37;98071.72;;;21.51;42.05
63321;BME280;49449;48.800;9.534;2023-07-28T11:49:10;98075.44;;;21.55;42.31
63321;BME280;49449;48.800;9.534;2023-07-28T11:51:39;98080.03;;;21.64;42.45
63321;BME280;49449;48.800;9.534;2023-07-28T11:54:10;98072.13;;;21.76;41.34
63321;BME280;49449;48.800;9.534;2023-07-28T11:56:40;98074.06;;;21.84;41.62
63321;BME280;49449;48.800;9.534;2023-07-28T11:59:08;98077.84;;;21.83;40.80
63321;BME280;49449;48.800;9.534;2023-07-28T12:01:51;98081.16;;;21.89;40.45
63321;BME280;49449;48.800;9.534;2023-07-28T12:04:22;98082.16;;;21.93;40.59
63321;BME280;49449;48.800;9.534;2023-07-28T12:07:04;98068.41;;;21.95;40.67
63321;BME280;49449;48.800;9.534;2023-07-28T12:09:33;98076.16;;;21.96;40.77
63321;BME280;49449;48.800;9.534;2023-07-28T12:12:02;98069.63;;;21.88;40.51
63321;BME280;49449;48.800;9.534;2023-07-28T12:14:32;98068.84;;;21.88;41.02
63321;BME280;49449;48.800;9.534;2023-07-28T12:17:05;98067.25;;;21.87;41.41
63321;BME280;49449;48.800;9.534;2023-07-28T12:19:42;98064.88;;;21.85;40.96
63321;BME280;49449;48.800;9.534;2023-07-28T12:22:10;98067.75;;;21.80;41.08
63321;BME280;49449;48.800;9.534;2023-07-28T12:24:38;98071.53;;;21.79;40.68
63321;BME280;49449;48.800;9.534;2023-07-28T12:27:10;98079.72;;;21.74;41.45
63321;BME280;49449;48.800;9.534;2023-07-28T12:29:38;98074.97;;;21.71;41.03
63321;BME280;49449;48.800;9.534;2023-07-28T12:32:15;98077.81;;;21.66;41.22
63321;BME280;49449;48.800;9.534;2023-07-28T12:34:45;98074.09;;;21.53;41.52
63321;BME280;49449;48.800;9.534;2023-07-28T12:37:17;98076.00;;;21.52;41.88
63321;BME280;49449;48.800;9.534;2023-07-28T12:40:06;98077.41;;;21.50;41.27
63321;BME280;49449;48.800;9.534;2023-07-28T12:42:36;98080.09;;;21.50;41.88
63321;BME280;49449;48.800;9.534;2023-07-28T12:45:07;98078.84;;;21.47;42.26
63321;BME280;49449;48.800;9.534;2023-07-28T12:47:38;98075.84;;;21.49;42.15
63321;BME280;49449;48.800;9.534;2023-07-28T12:50:07;98078.84;;;21.47;42.50
63321;BME280;49449;48.800;9.534;2023-07-28T12:52:44;98082.41;;;21.34;42.79
63321;BME280;49449;48.800;9.534;2023-07-28T12:55:15;98085.91;;;21.34;42.64
63321;BME280;49449;48.800;9.534;2023-07-28T12:57:45;98088.91;;;21.33;43.04
63321;BME280;49449;48.800;9.534;2023-07-28T13:00:15;98088.59;;;21.34;42.96
63321;BME280;49449;48.800;9.534;2023-07-28T13:02:45;98082.06;;;21.27;43.23
63321;BME280;49449;48.800;9.534;2023-07-28T13:05:14;98071.19;;;21.32;42.72
63321;BME280;49449;48.800;9.534;2023-07-28T13:07:43;98071.66;;;21.34;42.86
63321;BME280;49449;48.800;9.534;2023-07-28T13:10:14;98084.44;;;21.28;42.65